सभी
Mangaia Airport (Mangaia (Auau Enua)) MGS मौसम
|
Mangaia (Auau Enua) (MGS / NCMG)
स्वच्छ आकाश
हल्की हवाएं |
|
25 °C |
There is no TAF data available at MGS or any nearby airports.
Recent MGS METAR history
| Date | Time (-10) | Flight Rules | Wind Dir. | Speed | Type | Height AGL (ft) | Visibility | Temp (°C) | Temp (°F) | Dew Point (°C) | Dew Point (°F) | Rel. Humid. | Pressure | Density Altitude | Remarks |
|---|---|---|---|---|---|---|---|---|---|---|---|---|---|---|---|
| 04-मई | 18:00 | n/a | 120° | 10 kt | Missing | 25° | 77° | 17° | 62° | 61% | 1014 mb | 1,188 ft | |||
| 04-मई | 17:00 | n/a | 120° | 9 kt | Missing | 25° | 77° | 20° | 68° | 74% | 1013 mb | 1,217 ft | |||
| 04-मई | 16:00 | n/a | 120° | 8 kt | Missing | 25° | 77° | 19° | 66° | 69% | 1013 mb | 1,217 ft | |||
| 04-मई | 15:00 | n/a | 120° | 11 kt | Missing | 25° | 77° | 19° | 66° | 69% | 1013 mb | 1,217 ft | |||
| 04-मई | 14:00 | n/a | 110° | 11 kt | Missing | 26° | 78° | 20° | 68° | 70% | 1013 mb | 1,337 ft | |||
| 04-मई | 13:00 | n/a | 120° | 10 kt | Missing | 26° | 78° | 20° | 68° | 70% | 1013 mb | 1,337 ft | |||
| 04-मई | 12:00 | n/a | 120° | 11 kt | Missing | 27° | 80° | 20° | 68° | 66% | 1014 mb | 1,428 ft | |||
| 04-मई | 11:00 | n/a | 110° | 10 kt | Missing | 27° | 80° | 20° | 68° | 66% | 1014 mb | 1,428 ft | |||
| 04-मई | 10:00 | n/a | 120° | 9 kt | Missing | 25° | 77° | 20° | 68° | 74% | 1015 mb | 1,158 ft | |||
| 04-मई | 09:00 | n/a | 120° | 9 kt | Missing | 24° | 75° | 21° | 69° | 83% | 1014 mb | 1,068 ft | |||
| 04-मई | 08:00 | n/a | 120° | 10 kt | Missing | 24° | 75° | 21° | 69° | 83% | 1013 mb | 1,097 ft | |||
| 04-मई | 07:00 | n/a | 120° | 9 kt | Missing | 23° | 73° | 21° | 69° | 89% | 1013 mb | 977 ft | |||
| 04-मई | 06:00 | n/a | 130° | 7 kt | Missing | 24° | 75° | 21° | 69° | 83% | 1012 mb | 1,127 ft | |||
| 04-मई | 05:00 | n/a | 130° | 7 kt | Missing | 24° | 75° | 21° | 69° | 83% | 1012 mb | 1,127 ft | |||
| 04-मई | 04:00 | n/a | 130° | 6 kt | Missing | 24° | 75° | 21° | 69° | 83% | 1012 mb | 1,127 ft | |||
| 04-मई | 03:00 | n/a | 140° | 7 kt | Missing | 24° | 75° | 21° | 69° | 83% | 1012 mb | 1,127 ft | |||
| 04-मई | 02:00 | n/a | 140° | 5 kt | Missing | 24° | 75° | 21° | 69° | 83% | 1012 mb | 1,127 ft | |||
| 04-मई | 01:00 | n/a | 150° | 5 kt | Missing | 24° | 75° | 21° | 69° | 83% | 1013 mb | 1,097 ft | |||
| 04-मई | 00:00 | n/a | 150° | 5 kt | Missing | 24° | 75° | 21° | 69° | 83% | 1013 mb | 1,097 ft | |||
| 03-मई | 23:00 | n/a | 140° | 4 kt | Missing | 23° | 73° | 21° | 69° | 89% | 1013 mb | 977 ft | |||
| 03-मई | 22:00 | n/a | 140° | 4 kt | Missing | 22° | 71° | 21° | 69° | 94% | 1013 mb | 857 ft | |||
| 03-मई | 21:00 | n/a | 100° | 3 kt | Missing | 22° | 71° | 21° | 69° | 94% | 1012 mb | 887 ft | |||
| 03-मई | 20:00 | n/a | 130° | 3 kt | Missing | 22° | 71° | 22° | 71° | 100% | 1011 mb | 916 ft | |||
| 03-मई | 19:00 | n/a | 120° | 3 kt | Missing | 23° | 73° | 22° | 71° | 94% | 1011 mb | 1,036 ft |
लॉगिन
| Your browser is unsupported. अपना ब्राऊजर अपग्रेड करें |
